Huvudsida
METAR-TAF:

METAR-TAF

Flygplatser :

Oljeplattform

Statfjord B, Norge

latitud: 61-12-22N, longitud: 1-49-45E, höjd: 10 m

Aktuellt väderrapport

Denna rapport gjordes för 15 minuter sedan, klockan 00:50 UTC
Vind 41 kt från syd
Temperatur 11°C
Fuktighet 62%
Tryck 1014 hPa
Sikt 10 km eller mer

METAR: ENFB 230050Z AUTO 17041KT 9999NDV NCD 11/04 Q1014 W///S4

Tid: 03:05 (01:05 UTC)


TAF: saknas

Aktuella väderrapporter och prognoser från 4000 flygplatser (METAR- och TAF-rapporter).

De tillgängliga stationerna syns som gula och röda prickar på kartan.

För musen över prickarna för att se namnen på stationerna.

Klicka sedan för att få väderrapporter och prognoser.

För att ändra kartan: Klicka på de gröna knapparna med ett svart kors på för att zooma in; den gröna knappen med ett streck på för att zooma ut; eller på de gröna pilarna för angränsande kartor.


METAR-TAF: